sensor_id;sensor_type;location;lat;lon;timestamp;temperature;humidity
10468;DHT22;5281;48.878;9.394;2022-08-24T00:00:12;18.90;99.90
10468;DHT22;5281;48.878;9.394;2022-08-24T00:02:39;18.80;99.90
10468;DHT22;5281;48.878;9.394;2022-08-24T00:05:07;18.70;99.90
10468;DHT22;5281;48.878;9.394;2022-08-24T00:07:35;18.60;99.90
10468;DHT22;5281;48.878;9.394;2022-08-24T00:10:06;18.60;99.90
10468;DHT22;5281;48.878;9.394;2022-08-24T00:12:33;18.50;99.90
10468;DHT22;5281;48.878;9.394;2022-08-24T00:15:01;18.40;99.90
10468;DHT22;5281;48.878;9.394;2022-08-24T00:17:29;18.40;99.90
10468;DHT22;5281;48.878;9.394;2022-08-24T00:19:56;18.30;99.90
10468;DHT22;5281;48.878;9.394;2022-08-24T00:22:24;18.40;99.90
10468;DHT22;5281;48.878;9.394;2022-08-24T00:24:50;18.30;99.90
10468;DHT22;5281;48.878;9.394;2022-08-24T00:27:19;18.40;99.90
10468;DHT22;5281;48.878;9.394;2022-08-24T00:29:45;18.30;99.90
10468;DHT22;5281;48.878;9.394;2022-08-24T00:32:13;18.40;99.90
10468;DHT22;5281;48.878;9.394;2022-08-24T00:34:40;18.40;99.90
10468;DHT22;5281;48.878;9.394;2022-08-24T00:37:07;18.40;99.90
10468;DHT22;5281;48.878;9.394;2022-08-24T00:39:33;18.30;99.90
10468;DHT22;5281;48.878;9.394;2022-08-24T00:42:00;18.30;99.90
10468;DHT22;5281;48.878;9.394;2022-08-24T00:44:28;18.30;99.90
10468;DHT22;5281;48.878;9.394;2022-08-24T00:46:59;18.30;99.90
10468;DHT22;5281;48.878;9.394;2022-08-24T00:49:34;18.30;99.90
10468;DHT22;5281;48.878;9.394;2022-08-24T00:52:09;18.20;99.90
10468;DHT22;5281;48.878;9.394;2022-08-24T00:54:40;18.20;99.90
10468;DHT22;5281;48.878;9.394;2022-08-24T00:57:09;18.20;99.90
10468;DHT22;5281;48.878;9.394;2022-08-24T00:59:41;18.10;99.90
10468;DHT22;5281;48.878;9.394;2022-08-24T01:02:12;18.00;99.90
10468;DHT22;5281;48.878;9.394;2022-08-24T01:04:43;18.00;99.90
10468;DHT22;5281;48.878;9.394;2022-08-24T01:07:13;17.90;99.90
10468;DHT22;5281;48.878;9.394;2022-08-24T01:09:40;17.80;99.90
10468;DHT22;5281;48.878;9.394;2022-08-24T01:12:07;17.90;99.90
10468;DHT22;5281;48.878;9.394;2022-08-24T01:14:34;17.90;99.90
10468;DHT22;5281;48.878;9.394;2022-08-24T01:17:03;17.90;99.90
10468;DHT22;5281;48.878;9.394;2022-08-24T01:19:50;17.90;99.90
10468;DHT22;5281;48.878;9.394;2022-08-24T01:22:46;17.80;99.90
10468;DHT22;5281;48.878;9.394;2022-08-24T01:25:16;17.80;99.90
10468;DHT22;5281;48.878;9.394;2022-08-24T01:27:43;17.70;99.90
10468;DHT22;5281;48.878;9.394;2022-08-24T01:30:12;17.70;99.90
10468;DHT22;5281;48.878;9.394;2022-08-24T01:32:40;17.60;99.90
10468;DHT22;5281;48.878;9.394;2022-08-24T01:35:07;17.60;99.90
10468;DHT22;5281;48.878;9.394;2022-08-24T01:37:34;17.50;99.90
10468;DHT22;5281;48.878;9.394;2022-08-24T01:40:05;17.50;99.90
10468;DHT22;5281;48.878;9.394;2022-08-24T01:42:34;17.50;99.90
10468;DHT22;5281;48.878;9.394;2022-08-24T01:45:05;17.50;99.90
10468;DHT22;5281;48.878;9.394;2022-08-24T01:47:32;17.50;99.90
10468;DHT22;5281;48.878;9.394;2022-08-24T01:50:00;17.40;99.90
10468;DHT22;5281;48.878;9.394;2022-08-24T01:52:27;17.30;99.90
10468;DHT22;5281;48.878;9.394;2022-08-24T01:54:54;17.30;99.90
10468;DHT22;5281;48.878;9.394;2022-08-24T01:57:23;17.30;99.90
10468;DHT22;5281;48.878;9.394;2022-08-24T01:59:52;17.30;99.90
10468;DHT22;5281;48.878;9.394;2022-08-24T02:02:22;17.30;99.90
10468;DHT22;5281;48.878;9.394;2022-08-24T02:04:49;17.30;99.90
10468;DHT22;5281;48.878;9.394;2022-08-24T02:07:16;17.30;99.90
10468;DHT22;5281;48.878;9.394;2022-08-24T02:09:44;17.30;99.90
10468;DHT22;5281;48.878;9.394;2022-08-24T02:12:11;17.40;99.90
10468;DHT22;5281;48.878;9.394;2022-08-24T02:14:39;17.30;99.90
10468;DHT22;5281;48.878;9.394;2022-08-24T02:17:08;17.40;99.90
10468;DHT22;5281;48.878;9.394;2022-08-24T02:19:35;17.40;99.90
10468;DHT22;5281;48.878;9.394;2022-08-24T02:22:03;17.30;99.90
10468;DHT22;5281;48.878;9.394;2022-08-24T02:24:31;17.20;99.90
10468;DHT22;5281;48.878;9.394;2022-08-24T02:26:58;17.10;99.90
10468;DHT22;5281;48.878;9.394;2022-08-24T02:29:25;17.10;99.90
10468;DHT22;5281;48.878;9.394;2022-08-24T02:31:52;17.10;99.90
10468;DHT22;5281;48.878;9.394;2022-08-24T02:34:20;17.10;99.90
10468;DHT22;5281;48.878;9.394;2022-08-24T02:36:47;17.00;99.90
10468;DHT22;5281;48.878;9.394;2022-08-24T02:39:14;16.90;99.90
10468;DHT22;5281;48.878;9.394;2022-08-24T02:41:41;16.90;99.90
10468;DHT22;5281;48.878;9.394;2022-08-24T02:44:08;16.90;99.90
10468;DHT22;5281;48.878;9.394;2022-08-24T02:46:35;16.80;99.90
10468;DHT22;5281;48.878;9.394;2022-08-24T02:49:02;16.80;99.90
10468;DHT22;5281;48.878;9.394;2022-08-24T02:51:32;16.70;99.90
10468;DHT22;5281;48.878;9.394;2022-08-24T02:54:00;16.60;99.90
10468;DHT22;5281;48.878;9.394;2022-08-24T02:56:28;16.60;99.90
10468;DHT22;5281;48.878;9.394;2022-08-24T02:58:55;16.60;99.90
10468;DHT22;5281;48.878;9.394;2022-08-24T03:01:23;16.60;99.90
10468;DHT22;5281;48.878;9.394;2022-08-24T03:03:50;16.50;99.90
10468;DHT22;5281;48.878;9.394;2022-08-24T03:06:17;16.50;99.90
10468;DHT22;5281;48.878;9.394;2022-08-24T03:08:46;16.50;99.90
10468;DHT22;5281;48.878;9.394;2022-08-24T03:11:13;16.40;99.90
10468;DHT22;5281;48.878;9.394;2022-08-24T03:13:40;16.50;99.90
10468;DHT22;5281;48.878;9.394;2022-08-24T03:16:07;16.40;99.90
10468;DHT22;5281;48.878;9.394;2022-08-24T03:18:34;16.40;99.90
10468;DHT22;5281;48.878;9.394;2022-08-24T03:21:03;16.30;99.90
10468;DHT22;5281;48.878;9.394;2022-08-24T03:23:30;16.30;99.90
10468;DHT22;5281;48.878;9.394;2022-08-24T03:25:59;16.20;99.90
10468;DHT22;5281;48.878;9.394;2022-08-24T03:28:28;16.10;99.90
10468;DHT22;5281;48.878;9.394;2022-08-24T03:30:55;16.10;99.90
10468;DHT22;5281;48.878;9.394;2022-08-24T03:33:22;16.10;99.90
10468;DHT22;5281;48.878;9.394;2022-08-24T03:35:49;16.10;99.90
10468;DHT22;5281;48.878;9.394;2022-08-24T03:38:17;16.10;99.90
10468;DHT22;5281;48.878;9.394;2022-08-24T03:40:44;16.10;99.90
10468;DHT22;5281;48.878;9.394;2022-08-24T03:43:12;16.10;99.90
10468;DHT22;5281;48.878;9.394;2022-08-24T03:46:00;16.10;99.90
10468;DHT22;5281;48.878;9.394;2022-08-24T03:48:27;16.00;99.90
10468;DHT22;5281;48.878;9.394;2022-08-24T03:50:54;16.00;99.90
10468;DHT22;5281;48.878;9.394;2022-08-24T03:53:22;16.00;99.90
10468;DHT22;5281;48.878;9.394;2022-08-24T03:55:48;16.00;99.90
10468;DHT22;5281;48.878;9.394;2022-08-24T03:58:17;16.10;99.90
10468;DHT22;5281;48.878;9.394;2022-08-24T04:00:44;16.10;99.90
10468;DHT22;5281;48.878;9.394;2022-08-24T04:03:11;16.10;99.90
10468;DHT22;5281;48.878;9.394;2022-08-24T04:05:39;16.10;99.90
10468;DHT22;5281;48.878;9.394;2022-08-24T04:08:07;16.10;99.90
10468;DHT22;5281;48.878;9.394;2022-08-24T04:10:34;16.10;99.90
10468;DHT22;5281;48.878;9.394;2022-08-24T04:13:00;16.10;99.90
10468;DHT22;5281;48.878;9.394;2022-08-24T04:15:29;16.00;99.90
10468;DHT22;5281;48.878;9.394;2022-08-24T04:17:56;16.00;99.90
10468;DHT22;5281;48.878;9.394;2022-08-24T04:20:23;16.00;99.90
10468;DHT22;5281;48.878;9.394;2022-08-24T04:22:50;16.00;99.90
10468;DHT22;5281;48.878;9.394;2022-08-24T04:25:17;16.00;99.90
10468;DHT22;5281;48.878;9.394;2022-08-24T04:27:44;16.00;99.90
10468;DHT22;5281;48.878;9.394;2022-08-24T04:30:11;16.10;99.90
10468;DHT22;5281;48.878;9.394;2022-08-24T04:32:41;16.10;99.90
10468;DHT22;5281;48.878;9.394;2022-08-24T04:35:08;16.10;99.90
10468;DHT22;5281;48.878;9.394;2022-08-24T04:37:35;16.00;99.90
10468;DHT22;5281;48.878;9.394;2022-08-24T04:40:03;16.10;99.90
10468;DHT22;5281;48.878;9.394;2022-08-24T04:42:30;16.10;99.90
10468;DHT22;5281;48.878;9.394;2022-08-24T04:44:57;16.20;99.90
10468;DHT22;5281;48.878;9.394;2022-08-24T04:47:24;16.20;99.90
10468;DHT22;5281;48.878;9.394;2022-08-24T04:49:52;16.20;99.90
10468;DHT22;5281;48.878;9.394;2022-08-24T04:52:19;16.30;99.90
10468;DHT22;5281;48.878;9.394;2022-08-24T04:54:45;16.30;99.90
10468;DHT22;5281;48.878;9.394;2022-08-24T04:57:12;16.50;99.90
10468;DHT22;5281;48.878;9.394;2022-08-24T04:59:39;16.50;99.90
10468;DHT22;5281;48.878;9.394;2022-08-24T05:02:08;16.60;99.90
10468;DHT22;5281;48.878;9.394;2022-08-24T05:04:35;16.80;99.90
10468;DHT22;5281;48.878;9.394;2022-08-24T05:07:03;16.90;99.90
10468;DHT22;5281;48.878;9.394;2022-08-24T05:09:30;17.00;99.90
10468;DHT22;5281;48.878;9.394;2022-08-24T05:11:56;17.10;99.90
10468;DHT22;5281;48.878;9.394;2022-08-24T05:14:23;17.30;99.90
10468;DHT22;5281;48.878;9.394;2022-08-24T05:16:50;17.30;99.90
10468;DHT22;5281;48.878;9.394;2022-08-24T05:19:17;17.50;99.90
10468;DHT22;5281;48.878;9.394;2022-08-24T05:21:44;17.60;99.90
10468;DHT22;5281;48.878;9.394;2022-08-24T05:24:12;17.70;99.90
10468;DHT22;5281;48.878;9.394;2022-08-24T05:26:38;17.80;99.90
10468;DHT22;5281;48.878;9.394;2022-08-24T05:29:05;17.80;99.90
10468;DHT22;5281;48.878;9.394;2022-08-24T05:31:33;18.00;99.90
10468;DHT22;5281;48.878;9.394;2022-08-24T05:34:01;18.00;99.90
10468;DHT22;5281;48.878;9.394;2022-08-24T05:36:30;18.20;99.90
10468;DHT22;5281;48.878;9.394;2022-08-24T05:38:58;18.30;99.90
10468;DHT22;5281;48.878;9.394;2022-08-24T05:41:27;18.50;99.90
10468;DHT22;5281;48.878;9.394;2022-08-24T05:43:54;18.70;99.90
10468;DHT22;5281;48.878;9.394;2022-08-24T05:46:21;19.30;99.90
10468;DHT22;5281;48.878;9.394;2022-08-24T05:48:48;20.80;99.90
10468;DHT22;5281;48.878;9.394;2022-08-24T05:51:15;22.60;99.90
10468;DHT22;5281;48.878;9.394;2022-08-24T05:53:42;24.30;99.10
10468;DHT22;5281;48.878;9.394;2022-08-24T05:56:11;25.80;95.00
10468;DHT22;5281;48.878;9.394;2022-08-24T05:58:39;27.10;90.90
10468;DHT22;5281;48.878;9.394;2022-08-24T06:01:07;28.40;87.20
10468;DHT22;5281;48.878;9.394;2022-08-24T06:03:34;29.50;82.70
10468;DHT22;5281;48.878;9.394;2022-08-24T06:06:02;30.50;75.60
10468;DHT22;5281;48.878;9.394;2022-08-24T06:08:30;31.40;69.90
10468;DHT22;5281;48.878;9.394;2022-08-24T06:10:57;32.20;65.90
10468;DHT22;5281;48.878;9.394;2022-08-24T06:13:26;32.80;63.20
10468;DHT22;5281;48.878;9.394;2022-08-24T06:16:03;33.70;60.90
10468;DHT22;5281;48.878;9.394;2022-08-24T06:18:30;33.90;58.00
10468;DHT22;5281;48.878;9.394;2022-08-24T06:20:57;34.20;58.20
10468;DHT22;5281;48.878;9.394;2022-08-24T06:23:23;34.90;56.60
10468;DHT22;5281;48.878;9.394;2022-08-24T06:25:50;35.60;54.80
10468;DHT22;5281;48.878;9.394;2022-08-24T06:28:46;36.00;53.70
10468;DHT22;5281;48.878;9.394;2022-08-24T06:31:14;36.00;52.80
10468;DHT22;5281;48.878;9.394;2022-08-24T06:33:40;36.20;52.20
10468;DHT22;5281;48.878;9.394;2022-08-24T06:36:07;36.60;51.00
10468;DHT22;5281;48.878;9.394;2022-08-24T06:38:34;36.80;50.40
10468;DHT22;5281;48.878;9.394;2022-08-24T06:41:01;37.40;49.30
10468;DHT22;5281;48.878;9.394;2022-08-24T06:43:28;37.90;48.50
10468;DHT22;5281;48.878;9.394;2022-08-24T06:45:55;37.70;47.20
10468;DHT22;5281;48.878;9.394;2022-08-24T06:48:24;36.60;48.40
10468;DHT22;5281;48.878;9.394;2022-08-24T06:50:51;36.00;49.40
10468;DHT22;5281;48.878;9.394;2022-08-24T06:53:18;36.10;48.40
10468;DHT22;5281;48.878;9.394;2022-08-24T06:55:45;36.40;48.20
10468;DHT22;5281;48.878;9.394;2022-08-24T06:58:12;37.00;47.70
10468;DHT22;5281;48.878;9.394;2022-08-24T07:00:40;37.40;46.90
10468;DHT22;5281;48.878;9.394;2022-08-24T07:03:06;37.60;46.30
10468;DHT22;5281;48.878;9.394;2022-08-24T07:05:35;37.40;46.00
10468;DHT22;5281;48.878;9.394;2022-08-24T07:08:03;36.60;47.40
10468;DHT22;5281;48.878;9.394;2022-08-24T07:10:30;36.70;47.10
10468;DHT22;5281;48.878;9.394;2022-08-24T07:12:57;37.30;46.40
10468;DHT22;5281;48.878;9.394;2022-08-24T07:15:25;38.30;44.90
10468;DHT22;5281;48.878;9.394;2022-08-24T07:17:51;38.90;44.20
10468;DHT22;5281;48.878;9.394;2022-08-24T07:20:19;39.50;43.10
10468;DHT22;5281;48.878;9.394;2022-08-24T07:22:47;39.00;42.70
10468;DHT22;5281;48.878;9.394;2022-08-24T07:25:13;38.10;43.10
10468;DHT22;5281;48.878;9.394;2022-08-24T07:27:40;37.50;44.00
10468;DHT22;5281;48.878;9.394;2022-08-24T07:30:08;37.40;44.30
10468;DHT22;5281;48.878;9.394;2022-08-24T07:32:35;37.50;43.80
10468;DHT22;5281;48.878;9.394;2022-08-24T07:35:01;37.40;43.80
10468;DHT22;5281;48.878;9.394;2022-08-24T07:37:28;37.50;43.50
10468;DHT22;5281;48.878;9.394;2022-08-24T07:39:56;37.90;43.20
10468;DHT22;5281;48.878;9.394;2022-08-24T07:42:23;38.40;42.70
10468;DHT22;5281;48.878;9.394;2022-08-24T07:44:50;38.80;41.90
10468;DHT22;5281;48.878;9.394;2022-08-24T07:47:17;38.80;42.20
10468;DHT22;5281;48.878;9.394;2022-08-24T07:49:44;38.80;41.90
10468;DHT22;5281;48.878;9.394;2022-08-24T07:52:10;38.50;42.20
10468;DHT22;5281;48.878;9.394;2022-08-24T07:54:37;38.60;42.00
10468;DHT22;5281;48.878;9.394;2022-08-24T07:57:06;38.70;41.70
10468;DHT22;5281;48.878;9.394;2022-08-24T07:59:33;38.70;41.90
10468;DHT22;5281;48.878;9.394;2022-08-24T08:02:00;38.90;41.80
10468;DHT22;5281;48.878;9.394;2022-08-24T08:04:27;39.20;41.70
10468;DHT22;5281;48.878;9.394;2022-08-24T08:06:56;39.40;41.00
10468;DHT22;5281;48.878;9.394;2022-08-24T08:09:25;39.60;40.90
10468;DHT22;5281;48.878;9.394;2022-08-24T08:11:51;39.90;40.30
10468;DHT22;5281;48.878;9.394;2022-08-24T08:14:19;40.10;40.10
10468;DHT22;5281;48.878;9.394;2022-08-24T08:16:46;40.50;39.60
10468;DHT22;5281;48.878;9.394;2022-08-24T08:19:14;40.50;39.30
10468;DHT22;5281;48.878;9.394;2022-08-24T08:21:41;40.30;39.80
10468;DHT22;5281;48.878;9.394;2022-08-24T08:24:26;39.50;40.50
10468;DHT22;5281;48.878;9.394;2022-08-24T08:26:52;38.00;42.10
10468;DHT22;5281;48.878;9.394;2022-08-24T08:29:20;36.60;43.80
10468;DHT22;5281;48.878;9.394;2022-08-24T08:31:48;35.30;45.90
10468;DHT22;5281;48.878;9.394;2022-08-24T08:34:16;34.00;47.70
10468;DHT22;5281;48.878;9.394;2022-08-24T08:36:43;32.80;49.70
10468;DHT22;5281;48.878;9.394;2022-08-24T08:39:12;31.50;52.00
10468;DHT22;5281;48.878;9.394;2022-08-24T08:42:12;30.70;54.20
10468;DHT22;5281;48.878;9.394;2022-08-24T08:45:02;30.10;54.80
10468;DHT22;5281;48.878;9.394;2022-08-24T08:50:26;29.30;56.80
10468;DHT22;5281;48.878;9.394;2022-08-24T08:53:14;29.00;57.70
10468;DHT22;5281;48.878;9.394;2022-08-24T08:55:48;28.80;57.90
10468;DHT22;5281;48.878;9.394;2022-08-24T09:01:18;28.60;58.80
10468;DHT22;5281;48.878;9.394;2022-08-24T09:07:14;28.20;59.20
10468;DHT22;5281;48.878;9.394;2022-08-24T09:13:06;28.30;59.30
10468;DHT22;5281;48.878;9.394;2022-08-24T09:15:54;28.30;60.00
10468;DHT22;5281;48.878;9.394;2022-08-24T09:18:37;28.30;59.80
10468;DHT22;5281;48.878;9.394;2022-08-24T09:21:30;28.30;60.10
10468;DHT22;5281;48.878;9.394;2022-08-24T09:24:08;28.30;59.60
10468;DHT22;5281;48.878;9.394;2022-08-24T09:26:49;28.30;59.70
10468;DHT22;5281;48.878;9.394;2022-08-24T09:29:26;28.30;59.20
10468;DHT22;5281;48.878;9.394;2022-08-24T09:32:02;28.40;59.30
10468;DHT22;5281;48.878;9.394;2022-08-24T09:34:38;28.50;58.90
10468;DHT22;5281;48.878;9.394;2022-08-24T09:37:29;28.50;57.00
10468;DHT22;5281;48.878;9.394;2022-08-24T09:40:00;28.70;56.40
10468;DHT22;5281;48.878;9.394;2022-08-24T09:45:46;28.60;56.30
10468;DHT22;5281;48.878;9.394;2022-08-24T09:48:29;28.60;56.40
10468;DHT22;5281;48.878;9.394;2022-08-24T09:51:27;28.60;56.00
10468;DHT22;5281;48.878;9.394;2022-08-24T09:54:29;28.80;54.90
10468;DHT22;5281;48.878;9.394;2022-08-24T09:57:22;28.90;55.10
10468;DHT22;5281;48.878;9.394;2022-08-24T10:00:04;28.90;54.90
10468;DHT22;5281;48.878;9.394;2022-08-24T10:02:48;28.90;55.80
10468;DHT22;5281;48.878;9.394;2022-08-24T10:05:26;29.00;56.70
10468;DHT22;5281;48.878;9.394;2022-08-24T10:08:03;29.00;57.60
10468;DHT22;5281;48.878;9.394;2022-08-24T10:10:38;29.00;57.50
10468;DHT22;5281;48.878;9.394;2022-08-24T10:13:20;29.10;56.30
10468;DHT22;5281;48.878;9.394;2022-08-24T10:15:59;29.10;55.30
10468;DHT22;5281;48.878;9.394;2022-08-24T10:18:40;29.20;55.10
10468;DHT22;5281;48.878;9.394;2022-08-24T10:21:35;29.20;56.00
10468;DHT22;5281;48.878;9.394;2022-08-24T10:24:16;29.30;56.40
10468;DHT22;5281;48.878;9.394;2022-08-24T10:27:05;29.30;56.40
10468;DHT22;5281;48.878;9.394;2022-08-24T10:29:51;29.40;56.10
10468;DHT22;5281;48.878;9.394;2022-08-24T10:32:37;29.40;56.20
10468;DHT22;5281;48.878;9.394;2022-08-24T10:35:11;29.50;56.30
10468;DHT22;5281;48.878;9.394;2022-08-24T10:37:46;29.50;55.70
10468;DHT22;5281;48.878;9.394;2022-08-24T10:40:43;29.60;55.80
10468;DHT22;5281;48.878;9.394;2022-08-24T10:43:25;29.60;55.80
10468;DHT22;5281;48.878;9.394;2022-08-24T10:46:33;29.60;54.90
10468;DHT22;5281;48.878;9.394;2022-08-24T10:49:18;29.60;55.10
10468;DHT22;5281;48.878;9.394;2022-08-24T10:52:15;29.70;55.70
10468;DHT22;5281;48.878;9.394;2022-08-24T10:54:50;29.80;54.10
10468;DHT22;5281;48.878;9.394;2022-08-24T10:57:24;29.80;54.90
10468;DHT22;5281;48.878;9.394;2022-08-24T10:59:58;29.90;54.50
10468;DHT22;5281;48.878;9.394;2022-08-24T11:02:30;30.00;54.30
10468;DHT22;5281;48.878;9.394;2022-08-24T11:04:58;30.20;55.10
10468;DHT22;5281;48.878;9.394;2022-08-24T11:07:26;30.30;54.30
10468;DHT22;5281;48.878;9.394;2022-08-24T11:09:55;30.40;53.20
10468;DHT22;5281;48.878;9.394;2022-08-24T11:12:28;30.40;53.10
10468;DHT22;5281;48.878;9.394;2022-08-24T11:14:58;30.40;53.30
10468;DHT22;5281;48.878;9.394;2022-08-24T11:17:27;30.40;53.20
10468;DHT22;5281;48.878;9.394;2022-08-24T11:19:54;30.50;53.00
10468;DHT22;5281;48.878;9.394;2022-08-24T11:22:40;30.60;53.50
10468;DHT22;5281;48.878;9.394;2022-08-24T11:25:25;30.60;51.40
10468;DHT22;5281;48.878;9.394;2022-08-24T11:28:02;30.70;51.60
10468;DHT22;5281;48.878;9.394;2022-08-24T11:30:30;30.80;51.40
10468;DHT22;5281;48.878;9.394;2022-08-24T11:32:58;30.80;50.90
10468;DHT22;5281;48.878;9.394;2022-08-24T11:35:34;30.90;51.30
10468;DHT22;5281;48.878;9.394;2022-08-24T11:38:06;30.90;50.60
10468;DHT22;5281;48.878;9.394;2022-08-24T11:40:38;30.90;52.10
10468;DHT22;5281;48.878;9.394;2022-08-24T11:43:19;30.90;51.00
10468;DHT22;5281;48.878;9.394;2022-08-24T11:46:00;30.80;50.30
10468;DHT22;5281;48.878;9.394;2022-08-24T11:48:35;31.00;50.50
10468;DHT22;5281;48.878;9.394;2022-08-24T11:51:12;31.00;50.50
10468;DHT22;5281;48.878;9.394;2022-08-24T11:53:56;31.00;50.50
10468;DHT22;5281;48.878;9.394;2022-08-24T11:56:30;31.10;49.90
10468;DHT22;5281;48.878;9.394;2022-08-24T11:59:03;31.10;49.30
10468;DHT22;5281;48.878;9.394;2022-08-24T12:01:35;31.10;50.00
10468;DHT22;5281;48.878;9.394;2022-08-24T12:04:17;31.20;49.20
10468;DHT22;5281;48.878;9.394;2022-08-24T12:06:55;31.00;49.50
10468;DHT22;5281;48.878;9.394;2022-08-24T12:09:39;30.80;50.60
10468;DHT22;5281;48.878;9.394;2022-08-24T12:12:12;30.70;51.40
10468;DHT22;5281;48.878;9.394;2022-08-24T12:14:48;30.80;51.10
10468;DHT22;5281;48.878;9.394;2022-08-24T12:17:23;31.00;51.10
10468;DHT22;5281;48.878;9.394;2022-08-24T12:19:54;31.20;50.60
10468;DHT22;5281;48.878;9.394;2022-08-24T12:22:22;31.40;50.10
10468;DHT22;5281;48.878;9.394;2022-08-24T12:24:52;31.40;49.60
10468;DHT22;5281;48.878;9.394;2022-08-24T12:27:22;31.60;49.20
10468;DHT22;5281;48.878;9.394;2022-08-24T12:29:57;31.80;48.80
10468;DHT22;5281;48.878;9.394;2022-08-24T12:32:29;31.90;48.60
10468;DHT22;5281;48.878;9.394;2022-08-24T12:35:03;31.90;48.60
10468;DHT22;5281;48.878;9.394;2022-08-24T12:37:33;31.90;48.90
10468;DHT22;5281;48.878;9.394;2022-08-24T12:40:07;32.00;49.00
10468;DHT22;5281;48.878;9.394;2022-08-24T12:42:42;32.10;48.70
10468;DHT22;5281;48.878;9.394;2022-08-24T12:45:16;32.30;49.00
10468;DHT22;5281;48.878;9.394;2022-08-24T12:47:47;32.20;49.40
10468;DHT22;5281;48.878;9.394;2022-08-24T12:50:24;32.00;49.80
10468;DHT22;5281;48.878;9.394;2022-08-24T12:56:02;31.80;50.60
10468;DHT22;5281;48.878;9.394;2022-08-24T13:01:25;31.50;51.10
10468;DHT22;5281;48.878;9.394;2022-08-24T13:04:10;31.40;51.20
10468;DHT22;5281;48.878;9.394;2022-08-24T13:06:41;31.30;51.00
10468;DHT22;5281;48.878;9.394;2022-08-24T13:09:15;31.30;51.00
10468;DHT22;5281;48.878;9.394;2022-08-24T13:11:42;31.30;51.60
10468;DHT22;5281;48.878;9.394;2022-08-24T13:14:19;31.20;51.60
10468;DHT22;5281;48.878;9.394;2022-08-24T13:17:08;31.30;52.00
10468;DHT22;5281;48.878;9.394;2022-08-24T13:19:40;31.20;51.90
10468;DHT22;5281;48.878;9.394;2022-08-24T13:22:35;31.30;52.40
10468;DHT22;5281;48.878;9.394;2022-08-24T13:25:23;31.20;52.00
10468;DHT22;5281;48.878;9.394;2022-08-24T13:31:02;31.00;51.80
10468;DHT22;5281;48.878;9.394;2022-08-24T13:33:35;31.10;51.80
10468;DHT22;5281;48.878;9.394;2022-08-24T13:36:08;31.10;51.60
10468;DHT22;5281;48.878;9.394;2022-08-24T13:39:04;31.00;52.80
10468;DHT22;5281;48.878;9.394;2022-08-24T13:41:57;31.00;53.30
10468;DHT22;5281;48.878;9.394;2022-08-24T13:44:35;30.90;53.70
10468;DHT22;5281;48.878;9.394;2022-08-24T13:47:11;30.90;53.70
10468;DHT22;5281;48.878;9.394;2022-08-24T13:49:49;30.90;53.60
10468;DHT22;5281;48.878;9.394;2022-08-24T13:52:36;31.00;53.90
10468;DHT22;5281;48.878;9.394;2022-08-24T13:55:14;31.20;53.90
10468;DHT22;5281;48.878;9.394;2022-08-24T13:57:51;31.30;54.30
10468;DHT22;5281;48.878;9.394;2022-08-24T14:00:37;31.40;54.40
10468;DHT22;5281;48.878;9.394;2022-08-24T14:03:31;31.40;54.70
10468;DHT22;5281;48.878;9.394;2022-08-24T14:06:17;31.30;55.00
10468;DHT22;5281;48.878;9.394;2022-08-24T14:08:49;31.20;55.30
10468;DHT22;5281;48.878;9.394;2022-08-24T14:11:35;31.10;55.60
10468;DHT22;5281;48.878;9.394;2022-08-24T14:14:09;31.30;55.40
10468;DHT22;5281;48.878;9.394;2022-08-24T14:16:48;31.20;55.70
10468;DHT22;5281;48.878;9.394;2022-08-24T14:19:43;31.10;56.00
10468;DHT22;5281;48.878;9.394;2022-08-24T14:22:22;31.00;56.50
10468;DHT22;5281;48.878;9.394;2022-08-24T14:25:05;31.00;57.00
10468;DHT22;5281;48.878;9.394;2022-08-24T14:27:40;31.10;57.50
10468;DHT22;5281;48.878;9.394;2022-08-24T14:33:15;31.20;56.80
10468;DHT22;5281;48.878;9.394;2022-08-24T14:35:45;31.10;56.70
10468;DHT22;5281;48.878;9.394;2022-08-24T14:38:37;31.00;57.00
10468;DHT22;5281;48.878;9.394;2022-08-24T14:41:17;30.80;57.60
10468;DHT22;5281;48.878;9.394;2022-08-24T14:44:09;30.70;57.70
10468;DHT22;5281;48.878;9.394;2022-08-24T14:46:45;30.80;57.70
10468;DHT22;5281;48.878;9.394;2022-08-24T14:49:28;31.00;57.50
10468;DHT22;5281;48.878;9.394;2022-08-24T14:55:11;31.20;57.00
10468;DHT22;5281;48.878;9.394;2022-08-24T14:57:49;31.40;56.90
10468;DHT22;5281;48.878;9.394;2022-08-24T15:00:21;31.50;57.20
10468;DHT22;5281;48.878;9.394;2022-08-24T15:03:18;31.80;56.80
10468;DHT22;5281;48.878;9.394;2022-08-24T15:06:02;32.10;56.70
10468;DHT22;5281;48.878;9.394;2022-08-24T15:08:33;32.10;56.80
10468;DHT22;5281;48.878;9.394;2022-08-24T15:11:10;32.00;57.40
10468;DHT22;5281;48.878;9.394;2022-08-24T15:13:43;31.80;57.70
10468;DHT22;5281;48.878;9.394;2022-08-24T15:16:15;31.70;57.50
10468;DHT22;5281;48.878;9.394;2022-08-24T15:18:48;31.70;57.10
10468;DHT22;5281;48.878;9.394;2022-08-24T15:21:25;31.40;57.80
10468;DHT22;5281;48.878;9.394;2022-08-24T15:24:04;31.10;59.00
10468;DHT22;5281;48.878;9.394;2022-08-24T15:26:44;30.70;59.50
10468;DHT22;5281;48.878;9.394;2022-08-24T15:29:21;30.70;60.00
10468;DHT22;5281;48.878;9.394;2022-08-24T15:31:57;30.60;60.10
10468;DHT22;5281;48.878;9.394;2022-08-24T15:34:43;30.60;59.90
10468;DHT22;5281;48.878;9.394;2022-08-24T15:37:14;30.50;59.70
10468;DHT22;5281;48.878;9.394;2022-08-24T15:39:41;30.40;59.90
10468;DHT22;5281;48.878;9.394;2022-08-24T15:42:13;30.30;59.90
10468;DHT22;5281;48.878;9.394;2022-08-24T15:44:42;30.30;60.10
10468;DHT22;5281;48.878;9.394;2022-08-24T15:47:19;30.30;60.50
10468;DHT22;5281;48.878;9.394;2022-08-24T15:49:49;30.20;60.50
10468;DHT22;5281;48.878;9.394;2022-08-24T15:52:46;30.30;60.30
10468;DHT22;5281;48.878;9.394;2022-08-24T15:55:33;30.40;60.20
10468;DHT22;5281;48.878;9.394;2022-08-24T15:58:22;30.50;60.70
10468;DHT22;5281;48.878;9.394;2022-08-24T16:00:51;30.60;60.60
10468;DHT22;5281;48.878;9.394;2022-08-24T16:03:45;30.70;60.20
10468;DHT22;5281;48.878;9.394;2022-08-24T16:06:20;30.70;60.20
10468;DHT22;5281;48.878;9.394;2022-08-24T16:08:56;30.40;61.50
10468;DHT22;5281;48.878;9.394;2022-08-24T16:11:28;30.10;62.50
10468;DHT22;5281;48.878;9.394;2022-08-24T16:13:57;30.00;62.90
10468;DHT22;5281;48.878;9.394;2022-08-24T16:16:34;29.90;63.10
10468;DHT22;5281;48.878;9.394;2022-08-24T16:19:04;29.90;62.90
10468;DHT22;5281;48.878;9.394;2022-08-24T16:21:35;29.90;63.20
10468;DHT22;5281;48.878;9.394;2022-08-24T16:24:07;30.00;63.20
10468;DHT22;5281;48.878;9.394;2022-08-24T16:26:51;30.10;62.70
10468;DHT22;5281;48.878;9.394;2022-08-24T16:29:45;30.00;62.60
10468;DHT22;5281;48.878;9.394;2022-08-24T16:32:15;29.90;63.10
10468;DHT22;5281;48.878;9.394;2022-08-24T16:34:44;29.80;63.20
10468;DHT22;5281;48.878;9.394;2022-08-24T16:37:11;29.80;63.20
10468;DHT22;5281;48.878;9.394;2022-08-24T16:39:39;29.80;62.70
10468;DHT22;5281;48.878;9.394;2022-08-24T16:42:09;30.00;62.80
10468;DHT22;5281;48.878;9.394;2022-08-24T16:44:39;29.90;62.70
10468;DHT22;5281;48.878;9.394;2022-08-24T16:47:09;29.90;62.80
10468;DHT22;5281;48.878;9.394;2022-08-24T16:49:36;29.80;63.00